»·PEaware :: DLH480 KBOS-EDDF

DLH480 :: KBOS-EDDF

FLIGHT INFORMATION

Flight Status: Arrived
Operator:
Lufthansa
More flights by this operator :: More flights under this callsign
Pilot: Richard S. (14671)
Aircraft: AIRBUS A330-200
(A332)
More flights by this aircraft type
Origin: KBOS Logan Intl
United States
Destination: EDDF Frankfurt/Main
Germany
More flights between these airports :: More routes between these airports
Route: EBONY N555A NEEKO/M082F390 NATX KESIX IBROD/N0459F390 UMBEL LAMSO UL603 SOGPO UT149 OTSOP T149 LIPMI T150 ROLIS ROLI1R
File this flight plan on PilotEdge
Remarks: PBN / A1B1C1D1O1S2 DOF / 171203 REG / N315SB EET / KZBW0031 CZQM0032 CZQX0105 CZUL0130 CZQX0136 54N050W0212 56N040W0254 EGGX0336 58N020W0414 EGPX0455 EGTT0521 EHAA0556 EDVV0613 EDGG0627 OPR / DLH PER / D RALT / CYYR BIKF RMK / TCAS SIMBRIEF
Altitude:
(Current/Filed)
37,000ft
Speed:
(Current/Filed)
469kts
Departed: 02-Dec-17 08:34 PM
Arrived: 03-Dec-17 12:27 AM
Distance/Time
Traveled:
3177nm/3:53
Distance/Time
To Go:
Arrived

Flight Plot

Page will automatically refresh every two minutes.

Flight plan parsing failed; only flown route is shown


Map Options




Map Legend


Flown Route
Filed Route
Departure Airport
Arrival Airport
Navaid (VOR, NDB)
Fix

Horizontal Profiles

Position Reports

Time Latitude Longitude Heading Altitude Ground
Speed
02-Dec-17 20:38 55.753688 -41.559419 78 37186ft 542kts
02-Dec-17 20:39 55.795600 -41.303966 79 37184ft 541kts
02-Dec-17 20:40 55.836960 -41.047998 79 37185ft 541kts
02-Dec-17 20:41 55.877808 -40.791455 79 37186ft 541kts
02-Dec-17 20:42 55.918015 -40.535058 79 37186ft 541kts
02-Dec-17 20:43 55.957628 -40.278516 80 37185ft 540kts
02-Dec-17 20:44 55.996662 -40.021760 79 37186ft 541kts
02-Dec-17 20:45 56.056685 -39.774121 69 37191ft 548kts
02-Dec-17 20:46 56.118267 -39.526846 69 37185ft 547kts
02-Dec-17 20:47 56.179433 -39.278264 70 37183ft 547kts
02-Dec-17 20:48 56.239890 -39.029505 70 37183ft 547kts
02-Dec-17 20:49 56.299711 -38.780618 70 37183ft 544kts
02-Dec-17 20:50 56.358999 -38.531038 70 37184ft 548kts
02-Dec-17 20:51 56.417511 -38.281860 71 37184ft 546kts
02-Dec-17 20:52 56.475670 -38.031232 71 37184ft 547kts
02-Dec-17 20:53 56.533431 -37.779431 71 37185ft 546kts
02-Dec-17 20:54 56.590932 -37.525754 71 37185ft 546kts
02-Dec-17 20:55 56.647957 -37.271077 72 37185ft 546kts
02-Dec-17 20:56 56.703935 -37.018003 72 37185ft 546kts
02-Dec-17 20:57 56.759997 -36.761507 72 37184ft 546kts
02-Dec-17 20:58 56.815034 -36.506512 72 37186ft 547kts
02-Dec-17 20:59 56.869716 -36.249963 73 37186ft 545kts
02-Dec-17 21:00 56.923915 -35.992468 73 37186ft 545kts
02-Dec-17 21:01 56.977238 -35.735935 73 37186ft 545kts
02-Dec-17 21:02 57.030120 -35.478251 73 37187ft 545kts
02-Dec-17 21:03 57.082424 -35.219991 73 37183ft 544kts
02-Dec-17 21:04 57.135360 -34.955751 71 37186ft 565kts
02-Dec-17 21:05 57.188048 -34.688753 71 37185ft 561kts
02-Dec-17 21:06 57.238949 -34.427184 71 37186ft 561kts
02-Dec-17 21:07 57.289188 -34.165446 72 37155ft 561kts
02-Dec-17 21:08 57.337522 -33.910307 72 37157ft 561kts
02-Dec-17 21:09 57.369290 -33.740740 72 37158ft 562kts
02-Dec-17 21:10 57.397324 -33.589824 72 37159ft 561kts
02-Dec-17 21:11 57.424123 -33.444448 72 37159ft 562kts
02-Dec-17 21:12 57.451409 -33.295268 73 37156ft 561kts
02-Dec-17 21:13 57.480383 -33.135405 73 37158ft 562kts
02-Dec-17 21:14 57.514385 -32.946170 72 37158ft 562kts
02-Dec-17 21:15 57.555056 -32.717272 72 37159ft 562kts
02-Dec-17 21:16 57.597877 -32.473134 72 37159ft 562kts
02-Dec-17 21:17 57.644029 -32.206186 73 37157ft 561kts
02-Dec-17 21:18 57.689543 -31.939104 73 37136ft 562kts
02-Dec-17 21:19 57.734087 -31.673779 72 37133ft 548kts
02-Dec-17 21:20 57.777835 -31.409295 72 37132ft 551kts
02-Dec-17 21:21 57.821051 -31.143931 73 37131ft 553kts
02-Dec-17 21:22 57.862713 -30.884313 73 37132ft 552kts
02-Dec-17 21:23 57.903419 -30.626790 72 37131ft 553kts
02-Dec-17 21:24 57.944451 -30.363290 73 37132ft 549kts
02-Dec-17 21:25 57.979524 -30.134511 74 37130ft 554kts
02-Dec-17 21:26 58.002353 -29.911489 85 37132ft 551kts
02-Dec-17 21:27 58.012279 -29.674284 87 37132ft 551kts
02-Dec-17 21:28 58.020629 -29.442150 87 37132ft 552kts
02-Dec-17 21:29 58.027594 -29.238037 88 37131ft 551kts
02-Dec-17 21:30 58.034895 -29.012519 88 37131ft 552kts
02-Dec-17 21:31 58.043399 -28.732720 88 37172ft 553kts
02-Dec-17 21:32 58.051503 -28.444870 88 38074ft 551kts
02-Dec-17 21:33 58.058882 -28.160118 89 38797ft 550kts
02-Dec-17 21:34 58.065696 -27.873040 89 39115ft 550kts
02-Dec-17 21:35 58.071797 -27.586843 88 39132ft 551kts
02-Dec-17 21:36 58.077295 -27.299883 89 39131ft 550kts
02-Dec-17 21:37 58.082142 -27.012891 89 39163ft 552kts
02-Dec-17 21:38 58.086350 -26.725411 89 39828ft 549kts
02-Dec-17 21:39 58.089877 -26.440881 89 40354ft 548kts
02-Dec-17 21:40 58.092782 -26.155436 90 40789ft 547kts
02-Dec-17 21:41 58.095040 -25.870812 90 41152ft 544kts
02-Dec-17 21:42 58.096662 -25.586042 90 41130ft 546kts
02-Dec-17 21:43 58.097657 -25.300356 91 41127ft 546kts
02-Dec-17 21:44 58.098008 -25.015877 91 41131ft 546kts
02-Dec-17 21:45 58.097722 -24.730520 91 41132ft 546kts
02-Dec-17 21:46 58.096799 -24.444952 91 41133ft 546kts
02-Dec-17 21:47 58.095274 -24.159590 92 41131ft 547kts
02-Dec-17 21:48 58.093049 -23.874666 92 41129ft 547kts
02-Dec-17 21:49 58.090199 -23.587932 92 41131ft 546kts
02-Dec-17 21:50 58.086737 -23.303311 93 41129ft 546kts
02-Dec-17 21:51 58.082624 -23.017933 93 41132ft 546kts
02-Dec-17 21:52 58.077881 -22.733121 93 41132ft 546kts
02-Dec-17 21:53 58.072503 -22.448378 93 41132ft 546kts
02-Dec-17 21:54 58.066482 -22.163063 94 41132ft 546kts
02-Dec-17 21:55 58.059826 -21.878228 94 41131ft 546kts
02-Dec-17 21:56 58.052530 -21.593339 94 41132ft 546kts
02-Dec-17 21:57 58.044610 -21.308893 95 41130ft 546kts
02-Dec-17 21:58 58.036048 -21.024246 95 41131ft 546kts
02-Dec-17 21:59 58.026865 -20.740291 95 41132ft 546kts
02-Dec-17 22:00 58.017029 -20.455897 95 41133ft 546kts
02-Dec-17 22:01 58.006570 -20.171716 96 41131ft 546kts
02-Dec-17 22:02 57.980704 -19.895968 110 41133ft 541kts
02-Dec-17 22:03 57.934168 -19.628530 111 41132ft 539kts
02-Dec-17 22:04 57.886588 -19.364189 111 41132ft 539kts
02-Dec-17 22:05 57.838436 -19.100342 112 41241ft 537kts
02-Dec-17 22:06 57.789489 -18.836029 112 41345ft 539kts
02-Dec-17 22:07 57.740300 -18.574078 112 41346ft 539kts
02-Dec-17 22:08 57.690932 -18.314661 113 41346ft 537kts
02-Dec-17 22:09 57.640773 -18.054536 113 41347ft 538kts
02-Dec-17 22:10 57.589887 -17.794248 113 41348ft 537kts
02-Dec-17 22:11 57.538632 -17.535522 113 41348ft 537kts
02-Dec-17 22:12 57.486664 -17.276507 114 41347ft 537kts
02-Dec-17 22:13 57.434351 -17.019518 111 41346ft 542kts
02-Dec-17 22:14 57.380551 -16.757999 111 41347ft 545kts
02-Dec-17 22:15 57.326866 -16.501240 108 41642ft 523kts
02-Dec-17 22:16 57.274456 -16.252475 109 41345ft 523kts
02-Dec-17 22:17 57.221031 -16.002629 109 41350ft 523kts
02-Dec-17 22:18 57.167489 -15.755232 109 41349ft 525kts
02-Dec-17 22:19 57.113262 -15.507654 109 41348ft 524kts
02-Dec-17 22:20 57.058532 -15.260654 110 41348ft 524kts
02-Dec-17 22:21 57.004334 -15.014467 102 41344ft 521kts
02-Dec-17 22:22 56.988589 -14.753995 91 41349ft 517kts
02-Dec-17 22:23 56.975753 -14.493473 91 41350ft 516kts
02-Dec-17 22:24 56.962424 -14.232891 92 41345ft 516kts
02-Dec-17 22:25 56.946994 -13.972905 96 41349ft 520kts
02-Dec-17 22:26 56.922491 -13.714354 96 41348ft 519kts
02-Dec-17 22:27 56.896995 -13.456264 96 41345ft 519kts
02-Dec-17 22:28 56.870859 -13.198560 97 41346ft 520kts
02-Dec-17 22:29 56.844312 -12.941358 97 41347ft 520kts
02-Dec-17 22:30 56.817302 -12.685111 97 41346ft 520kts
02-Dec-17 22:31 56.789583 -12.427525 97 41346ft 520kts
02-Dec-17 22:32 56.766158 -12.213779 98 41346ft 520kts
02-Dec-17 22:33 56.732816 -11.915708 98 41346ft 520kts
02-Dec-17 22:34 56.703579 -11.659833 98 41347ft 520kts
02-Dec-17 22:35 56.678688 -11.445964 98 41347ft 520kts
02-Dec-17 22:36 56.648537 -11.190978 99 41344ft 523kts
02-Dec-17 22:37 56.612552 -10.893070 99 41348ft 521kts
02-Dec-17 22:38 56.581224 -10.638830 99 41346ft 521kts
02-Dec-17 22:39 56.554566 -10.425958 99 41352ft 525kts
02-Dec-17 22:40 56.517089 -10.132092 100 41345ft 529kts
02-Dec-17 22:41 56.483385 -9.922559 107 41344ft 532kts
02-Dec-17 22:42 56.432224 -9.674953 108 41346ft 531kts
02-Dec-17 22:43 56.379904 -9.427444 108 41375ft 532kts
02-Dec-17 22:44 56.327451 -9.182230 109 41377ft 532kts
02-Dec-17 22:45 56.274160 -8.936154 109 41375ft 532kts
02-Dec-17 22:46 56.220245 -8.690087 109 41374ft 533kts
02-Dec-17 22:47 56.165951 -8.445327 109 41373ft 530kts
02-Dec-17 22:48 56.112119 -8.205280 110 41374ft 532kts
02-Dec-17 22:49 56.057114 -7.962891 110 41375ft 532kts
02-Dec-17 22:50 56.002071 -7.723181 109 41376ft 513kts
02-Dec-17 22:51 55.947672 -7.488690 109 41377ft 521kts
02-Dec-17 22:52 55.892652 -7.254219 110 41373ft 524kts
02-Dec-17 22:53 55.836457 -7.017831 110 41374ft 523kts
02-Dec-17 22:54 55.780047 -6.782656 110 41344ft 523kts
02-Dec-17 22:55 55.723035 -6.547517 110 41347ft 523kts
02-Dec-17 22:56 55.665805 -6.313976 111 41346ft 523kts
02-Dec-17 22:57 55.607722 -6.079392 111 41345ft 524kts
02-Dec-17 22:58 55.549241 -5.845823 111 41407ft 523kts
02-Dec-17 22:59 55.490096 -5.612054 111 41402ft 524kts
02-Dec-17 23:00 55.430778 -5.380042 111 41402ft 524kts
02-Dec-17 23:01 55.372296 -5.153530 112 41370ft 525kts
02-Dec-17 23:02 55.312441 -4.924150 112 41350ft 524kts
02-Dec-17 23:03 55.252075 -4.695159 112 41348ft 524kts
02-Dec-17 23:04 55.190932 -4.465549 112 41348ft 525kts
02-Dec-17 23:05 55.130046 -4.239104 113 41347ft 525kts
02-Dec-17 23:06 55.068206 -4.011459 113 41348ft 525kts
02-Dec-17 23:07 55.005958 -3.784597 113 41346ft 523kts
02-Dec-17 23:08 54.944417 -3.562475 112 41267ft 523kts
02-Dec-17 23:09 54.884043 -3.346833 113 41265ft 523kts
02-Dec-17 23:10 54.826526 -3.143203 113 41287ft 523kts
02-Dec-17 23:11 54.764141 -2.924185 113 41292ft 522kts
02-Dec-17 23:12 54.701189 -2.705243 113 41293ft 522kts
02-Dec-17 23:13 54.637941 -2.487310 113 41269ft 522kts
02-Dec-17 23:14 54.574715 -2.271379 114 41267ft 519kts
02-Dec-17 23:15 54.512125 -2.059577 114 41267ft 514kts
02-Dec-17 23:16 54.448224 -1.845352 114 41266ft 513kts
02-Dec-17 23:17 54.385266 -1.636137 114 41266ft 515kts
02-Dec-17 23:18 54.321630 -1.426528 114 41266ft 515kts
02-Dec-17 23:19 54.257359 -1.216583 114 41292ft 515kts
02-Dec-17 23:20 54.192143 -1.005513 114 41271ft 514kts
02-Dec-17 23:21 54.126750 -0.795730 114 41293ft 515kts
02-Dec-17 23:22 54.061264 -0.587454 114 41265ft 515kts
02-Dec-17 23:23 53.992488 -0.380684 117 41267ft 516kts
02-Dec-17 23:24 53.921546 -0.177677 118 41267ft 517kts
02-Dec-17 23:25 53.850759 0.022630 118 41266ft 516kts
02-Dec-17 23:26 53.778893 0.224640 118 41265ft 516kts
02-Dec-17 23:27 53.706382 0.426844 118 41266ft 516kts
02-Dec-17 23:28 53.633517 0.628394 118 41266ft 516kts
02-Dec-17 23:29 53.560247 0.829511 118 41266ft 512kts
02-Dec-17 23:30 53.487145 1.028526 118 41266ft 515kts
02-Dec-17 23:31 53.413827 1.226505 118 41266ft 513kts
02-Dec-17 23:32 53.339738 1.424987 118 41266ft 513kts
02-Dec-17 23:33 53.265597 1.622059 118 41266ft 513kts
02-Dec-17 23:34 53.192079 1.816059 119 41267ft 514kts
02-Dec-17 23:35 53.117234 2.011936 119 41266ft 514kts
02-Dec-17 23:36 53.041858 2.207617 118 41206ft 511kts
02-Dec-17 23:37 52.966864 2.400930 118 41213ft 511kts
02-Dec-17 23:38 52.890968 2.594992 119 41209ft 509kts
02-Dec-17 23:39 52.815218 2.787152 124 41214ft 522kts
02-Dec-17 23:40 52.738798 2.980748 123 41208ft 510kts
02-Dec-17 23:41 52.691398 3.171768 116 41213ft 478kts
02-Dec-17 23:42 52.646223 3.362103 114 41213ft 488kts
02-Dec-17 23:43 52.596952 3.568654 110 41215ft 503kts
02-Dec-17 23:44 52.547341 3.774848 107 41238ft 512kts
02-Dec-17 23:45 52.497449 3.980171 107 41214ft 494kts
02-Dec-17 23:46 52.447317 4.184441 107 41212ft 499kts
02-Dec-17 23:47 52.396995 4.387608 107 41212ft 499kts
02-Dec-17 23:48 52.346353 4.590169 107 41212ft 498kts
02-Dec-17 23:49 52.296209 4.789045 108 41240ft 499kts
02-Dec-17 23:50 52.245277 4.989143 108 41240ft 498kts
02-Dec-17 23:51 52.193397 5.191141 108 41240ft 496kts
02-Dec-17 23:52 52.143705 5.392672 101 41243ft 492kts
02-Dec-17 23:53 52.102304 5.598326 103 41240ft 493kts
02-Dec-17 23:54 52.061263 5.797233 104 41240ft 493kts
02-Dec-17 23:55 52.018594 6.001849 104 41240ft 493kts
02-Dec-17 23:56 51.975594 6.204561 107 41238ft 495kts
02-Dec-17 23:57 51.889302 6.371045 131 41236ft 510kts
02-Dec-17 23:58 51.791552 6.523392 132 41240ft 509kts
02-Dec-17 23:59 51.701885 6.661701 132 41266ft 509kts
03-Dec-17 00:00 51.620642 6.786417 132 41266ft 509kts
03-Dec-17 00:01 51.532394 6.921039 132 41292ft 509kts
03-Dec-17 00:02 51.412716 7.034580 149 41293ft 519kts
03-Dec-17 00:03 51.293216 7.130311 150 41300ft 518kts
03-Dec-17 00:04 51.171841 7.226640 149 38792ft 515kts
03-Dec-17 00:05 51.053046 7.332674 142 35308ft 491kts
03-Dec-17 00:06 50.938935 7.443982 142 32599ft 497kts
03-Dec-17 00:07 50.837910 7.541634 142 30976ft 502kts
03-Dec-17 00:08 50.724863 7.632455 151 29505ft 512kts
03-Dec-17 00:09 50.600494 7.715641 152 27437ft 511kts
03-Dec-17 00:10 50.497745 7.783782 152 25273ft 496kts
03-Dec-17 00:11 50.402138 7.867944 134 23131ft 453kts
03-Dec-17 00:12 50.320453 7.967455 134 21194ft 441kts
03-Dec-17 00:13 50.237832 8.063434 139 19288ft 433kts
03-Dec-17 00:14 50.150657 8.156337 140 17294ft 426kts
03-Dec-17 00:15 50.055774 8.255676 141 14916ft 412kts
03-Dec-17 00:16 49.966281 8.348917 142 12701ft 392kts
03-Dec-17 00:17 49.884597 8.433955 143 11245ft 377kts
03-Dec-17 00:18 49.816383 8.510732 123 10598ft 338kts
03-Dec-17 00:19 49.812402 8.628424 70 10060ft 282kts
03-Dec-17 00:20 49.835959 8.731263 64 8971ft 271kts
03-Dec-17 00:21 49.864613 8.836781 64 7780ft 273kts
03-Dec-17 00:22 49.893494 8.940768 65 6596ft 272kts
03-Dec-17 00:23 49.941401 9.012753 345 5014ft 264kts
03-Dec-17 00:24 49.977864 8.936238 300 4047ft 255kts
03-Dec-17 00:25 50.009974 8.864547 304 3538ft 210kts
03-Dec-17 00:26 50.040586 8.800949 305 3098ft 209kts
03-Dec-17 00:27 50.071208 8.737732 293 2319ft 187kts
03-Dec-17 00:28 50.062642 8.681598 248 1680ft 146kts
03-Dec-17 00:29 50.051630 8.635545 248 1066ft 127kts
03-Dec-17 00:30 50.042332 8.596344 248 548ft 126kts
03-Dec-17 00:31 50.034468 8.563519 249 376ft 62kts
03-Dec-17 00:32 50.033158 8.554622 279 376ft 4kts
03-Dec-17 00:33 50.037244 8.547161 23 376ft 25kts
03-Dec-17 00:34 50.039602 8.555820 70 376ft 32kts
03-Dec-17 00:35 50.042936 8.560684 354 376ft 7kts
03-Dec-17 00:36 50.046494 8.563509 70 376ft 32kts
03-Dec-17 00:37 50.048038 8.565829 338 376ft 0kts
03-Dec-17 00:38 50.048038 8.565829 338 376ft 0kts
03-Dec-17 00:39 50.048038 8.565829 338 376ft 0kts
03-Dec-17 00:40 50.048038 8.565829 338 376ft 0kts
03-Dec-17 00:41 50.048038 8.565829 338 376ft 0kts
03-Dec-17 00:42 50.048038 8.565829 338 376ft 0kts
03-Dec-17 00:43 50.048038 8.565829 338 376ft 0kts
03-Dec-17 00:44 50.048038 8.565829 338 376ft 0kts

Navigation Log

Ident Type
Flight plan parsing failed, navigation log unavailable